PWSweather.com
Personal Weather Stations
Station Observations
ARECO747
Argentina , San Antonio ArecoAR Bs.As

Argentina San Antonio ArecoAR Bs.As

Lat: -34.24447275818, Lon: -59.47654187679

Elevation: 102

Station Type: InformaciĆ³n generada con nuevo Microchip Ethernet conectado a estaciĆ³n WH1081

http://www.meteostar.com.ar

Latest ConditionsUpdated 11:38:38 AM GMT-03:57 Friday, Jul 20, 2018
Currently Today's Max Today's Min Today's Average
Temperature 46.8°F8.2°C 51.8°F11.0°C 43.3°F6.3°C 46.4°F8.0°C
Dew Point 41.5°F5.3°C 46.6°F8.1°C 39.7°F4.3°C 42.0°F5.6°C
Winds 18.3 mph W29.5 kmh W 18.3 mph -29.5 kmh - - 11.1 mph 17.9 kmh
Wind Gusts 25.9 mph41.7 kmh 30.4 mph48.9 kmh - -
Humidity 82% 87% 80% 85%
Pressure 29.90 in1012.5 mb 29.90 in1012.5 mb 29.80 in1009.1 mb -
Hour Temp Dew Point Humidity Winds Wind Gusts Pressure Precip Precip Rate Daily Precip Total
11:38 AM 46.8°F8.2°C 41.5°F5.3°C 82% 18.3 mph W29.5 kmh W 25.9 mph41.7 kmh 29.90 in1012.5 mb 0.00 in0.0 mm 0.00 in0.0 mm 0.00 in0.0 mm
11:33 AM 46.4°F8.0°C 40.8°F4.9°C 81% 15.9 mph NW25.6 kmh NW 25.9 mph41.7 kmh 29.90 in1012.5 mb 0.00 in0.0 mm 0.00 in0.0 mm 0.00 in0.0 mm
11:28 AM 46.8°F8.2°C 41.0°F5.0°C 80% 14.5 mph SW23.3 kmh SW 22.8 mph36.7 kmh 29.89 in1012.2 mb 0.00 in0.0 mm 0.00 in0.0 mm 0.00 in0.0 mm
11:23 AM 47.3°F8.5°C 41.4°F5.2°C 80% 13.6 mph SW21.9 kmh SW 25.9 mph41.7 kmh 29.89 in1012.2 mb 0.00 in0.0 mm 0.00 in0.0 mm 0.00 in0.0 mm
11:17 AM 47.3°F8.5°C 41.4°F5.2°C 80% 12.1 mph SW19.5 kmh SW 25.9 mph41.7 kmh 29.89 in1012.2 mb 0.00 in0.0 mm 0.00 in0.0 mm 0.00 in0.0 mm
11:12 AM 47.3°F8.5°C 41.7°F5.4°C 81% 14.5 mph NW23.3 kmh NW 22.1 mph35.6 kmh 29.88 in1011.9 mb 0.00 in0.0 mm 0.00 in0.0 mm 0.00 in0.0 mm
11:07 AM 47.1°F8.4°C 41.9°F5.5°C 82% 13.0 mph NW20.9 kmh NW 28.9 mph46.5 kmh 29.89 in1012.2 mb 0.00 in0.0 mm 0.00 in0.0 mm 0.00 in0.0 mm
11:02 AM 46.4°F8.0°C 41.2°F5.1°C 82% 15.9 mph SW25.6 kmh SW 30.4 mph48.9 kmh 29.88 in1011.9 mb 0.00 in0.0 mm 0.00 in0.0 mm 0.00 in0.0 mm
10:57 AM 46.6°F8.1°C 41.7°F5.4°C 83% 9.8 mph W15.8 kmh W 25.9 mph41.7 kmh 29.88 in1011.9 mb 0.00 in0.0 mm 0.00 in0.0 mm 0.00 in0.0 mm
10:52 AM 45.9°F7.7°C 40.6°F4.8°C 82% 14.5 mph SW23.3 kmh SW 24.4 mph39.3 kmh 29.88 in1011.9 mb 0.00 in0.0 mm 0.00 in0.0 mm 0.00 in0.0 mm
10:46 AM 46.2°F7.9°C 41.0°F5.0°C 82% 9.8 mph SSW15.8 kmh SSW 22.8 mph36.7 kmh 29.88 in1011.9 mb 0.00 in0.0 mm 0.00 in0.0 mm 0.00 in0.0 mm
10:41 AM 46.8°F8.2°C 41.9°F5.5°C 83% 13.6 mph SW21.9 kmh SW 25.1 mph40.4 kmh 29.88 in1011.9 mb 0.00 in0.0 mm 0.00 in0.0 mm 0.00 in0.0 mm
10:36 AM 46.9°F8.3°C 42.1°F5.6°C 83% 13.6 mph NW21.9 kmh NW 22.1 mph35.6 kmh 29.88 in1011.9 mb 0.00 in0.0 mm 0.00 in0.0 mm 0.00 in0.0 mm
10:31 AM 46.2°F7.9°C 41.4°F5.2°C 83% 15.9 mph NW25.6 kmh NW 27.3 mph43.9 kmh 29.88 in1011.9 mb 0.00 in0.0 mm 0.00 in0.0 mm 0.00 in0.0 mm
10:26 AM 46.2°F7.9°C 41.4°F5.2°C 83% 12.1 mph SSW19.5 kmh SSW 20.6 mph33.2 kmh 29.88 in1011.9 mb 0.00 in0.0 mm 0.00 in0.0 mm 0.00 in0.0 mm
10:21 AM 46.0°F7.8°C 41.2°F5.1°C 83% 14.5 mph SW23.3 kmh SW 22.8 mph36.7 kmh 29.88 in1011.9 mb 0.00 in0.0 mm 0.00 in0.0 mm 0.00 in0.0 mm
10:15 AM 45.9°F7.7°C 41.0°F5.0°C 83% 13.6 mph SW21.9 kmh SW 25.1 mph40.4 kmh 29.88 in1011.9 mb 0.00 in0.0 mm 0.00 in0.0 mm 0.00 in0.0 mm
10:10 AM 45.9°F7.7°C 41.4°F5.2°C 84% 13.0 mph SW20.9 kmh SW 23.5 mph37.8 kmh 29.88 in1011.9 mb 0.00 in0.0 mm 0.00 in0.0 mm 0.00 in0.0 mm
10:05 AM 45.5°F7.5°C 41.0°F5.0°C 84% 14.5 mph SW23.3 kmh SW 21.3 mph34.3 kmh 29.88 in1011.9 mb 0.00 in0.0 mm 0.00 in0.0 mm 0.00 in0.0 mm
10:00 AM 45.5°F7.5°C 41.2°F5.1°C 85% 10.7 mph W17.2 kmh W 18.3 mph29.5 kmh 29.88 in1011.9 mb 0.00 in0.0 mm 0.00 in0.0 mm 0.00 in0.0 mm
09:55 AM 45.5°F7.5°C 41.2°F5.1°C 85% 9.2 mph NW14.8 kmh NW 19.7 mph31.7 kmh 29.88 in1011.9 mb 0.00 in0.0 mm 0.00 in0.0 mm 0.00 in0.0 mm
09:50 AM 45.3°F7.4°C 41.0°F5.0°C 85% 8.3 mph NW13.4 kmh NW 22.8 mph36.7 kmh 29.88 in1011.9 mb 0.00 in0.0 mm 0.00 in0.0 mm 0.00 in0.0 mm
09:44 AM 45.3°F7.4°C 41.0°F5.0°C 85% 13.6 mph NW21.9 kmh NW 22.8 mph36.7 kmh 29.88 in1011.9 mb 0.00 in0.0 mm 0.00 in0.0 mm 0.00 in0.0 mm
09:39 AM 45.3°F7.4°C 41.0°F5.0°C 85% 8.3 mph NW13.4 kmh NW 18.3 mph29.5 kmh 29.88 in1011.9 mb 0.00 in0.0 mm 0.00 in0.0 mm 0.00 in0.0 mm
09:34 AM 45.1°F7.3°C 40.8°F4.9°C 85% 11.4 mph NW18.3 kmh NW 25.1 mph40.4 kmh 29.87 in1011.5 mb 0.00 in0.0 mm 0.00 in0.0 mm 0.00 in0.0 mm
09:29 AM 45.0°F7.2°C 40.6°F4.8°C 85% 10.7 mph SW17.2 kmh SW 19.7 mph31.7 kmh 29.87 in1011.5 mb 0.00 in0.0 mm 0.00 in0.0 mm 0.00 in0.0 mm
09:24 AM 44.8°F7.1°C 40.8°F4.9°C 86% 12.1 mph WSW19.5 kmh WSW 25.1 mph40.4 kmh 29.87 in1011.5 mb 0.00 in0.0 mm 0.00 in0.0 mm 0.00 in0.0 mm
09:19 AM 44.6°F7.0°C 40.6°F4.8°C 86% 9.2 mph NW14.8 kmh NW 21.3 mph34.3 kmh 29.87 in1011.5 mb 0.00 in0.0 mm 0.00 in0.0 mm 0.00 in0.0 mm
09:13 AM 44.4°F6.9°C 40.8°F4.9°C 87% 16.8 mph SW27.0 kmh SW 21.3 mph34.3 kmh 29.88 in1011.9 mb 0.00 in0.0 mm 0.00 in0.0 mm 0.00 in0.0 mm
09:08 AM 44.2°F6.8°C 40.6°F4.8°C 87% 13.6 mph NW21.9 kmh NW 19.7 mph31.7 kmh 29.88 in1011.9 mb 0.00 in0.0 mm 0.00 in0.0 mm 0.00 in0.0 mm
09:03 AM 44.1°F6.7°C 40.5°F4.7°C 87% 12.1 mph NW19.5 kmh NW 20.6 mph33.2 kmh 29.88 in1011.9 mb 0.00 in0.0 mm 0.00 in0.0 mm 0.00 in0.0 mm
08:58 AM 44.1°F6.7°C 40.5°F4.7°C 87% 11.4 mph SW18.3 kmh SW 22.1 mph35.6 kmh 29.88 in1011.9 mb 0.00 in0.0 mm 0.00 in0.0 mm 0.00 in0.0 mm
08:53 AM 44.1°F6.7°C 40.5°F4.7°C 87% 15.2 mph W24.5 kmh W 22.8 mph36.7 kmh 29.88 in1011.9 mb 0.00 in0.0 mm 0.00 in0.0 mm 0.00 in0.0 mm
08:48 AM 43.9°F6.6°C 40.3°F4.6°C 87% 13.0 mph SW20.9 kmh SW 22.8 mph36.7 kmh 29.87 in1011.5 mb 0.00 in0.0 mm 0.00 in0.0 mm 0.00 in0.0 mm
08:42 AM 43.9°F6.6°C 40.3°F4.6°C 87% 13.0 mph S20.9 kmh S 21.3 mph34.3 kmh 29.87 in1011.5 mb 0.00 in0.0 mm 0.00 in0.0 mm 0.00 in0.0 mm
08:37 AM 43.7°F6.5°C 40.1°F4.5°C 87% 15.2 mph SW24.5 kmh SW 21.3 mph34.3 kmh 29.87 in1011.5 mb 0.00 in0.0 mm 0.00 in0.0 mm 0.00 in0.0 mm
08:32 AM 43.7°F6.5°C 40.1°F4.5°C 87% 13.0 mph WSW20.9 kmh WSW 19.0 mph30.6 kmh 29.87 in1011.5 mb 0.00 in0.0 mm 0.00 in0.0 mm 0.00 in0.0 mm
08:27 AM 43.5°F6.4°C 39.9°F4.4°C 87% 11.4 mph W18.3 kmh W 19.0 mph30.6 kmh 29.87 in1011.5 mb 0.00 in0.0 mm 0.00 in0.0 mm 0.00 in0.0 mm
08:22 AM 43.5°F6.4°C 39.9°F4.4°C 87% 9.8 mph W15.8 kmh W 22.1 mph35.6 kmh 29.86 in1011.2 mb 0.00 in0.0 mm 0.00 in0.0 mm 0.00 in0.0 mm
08:17 AM 43.5°F6.4°C 39.9°F4.4°C 87% 9.2 mph SW14.8 kmh SW 23.5 mph37.8 kmh 29.85 in1010.8 mb 0.00 in0.0 mm 0.00 in0.0 mm 0.00 in0.0 mm
08:11 AM 43.3°F6.3°C 39.7°F4.3°C 87% 10.7 mph W17.2 kmh W 25.1 mph40.4 kmh 29.85 in1010.8 mb 0.00 in0.0 mm 0.00 in0.0 mm 0.00 in0.0 mm
08:06 AM 43.3°F6.3°C 39.7°F4.3°C 87% 15.2 mph SW24.5 kmh SW 25.9 mph41.7 kmh 29.85 in1010.8 mb 0.00 in0.0 mm 0.00 in0.0 mm 0.00 in0.0 mm
08:01 AM 43.5°F6.4°C 39.9°F4.4°C 87% 13.0 mph W20.9 kmh W 25.9 mph41.7 kmh 29.85 in1010.8 mb 0.00 in0.0 mm 0.00 in0.0 mm 0.00 in0.0 mm
07:56 AM 43.5°F6.4°C 39.9°F4.4°C 87% 8.3 mph W13.4 kmh W 21.3 mph34.3 kmh 29.84 in1010.5 mb 0.00 in0.0 mm 0.00 in0.0 mm 0.00 in0.0 mm
07:51 AM 43.5°F6.4°C 39.9°F4.4°C 87% 11.4 mph SSW18.3 kmh SSW 18.3 mph29.5 kmh 29.84 in1010.5 mb 0.00 in0.0 mm 0.00 in0.0 mm 0.00 in0.0 mm
07:46 AM 43.3°F6.3°C 39.7°F4.3°C 87% 7.6 mph WSW12.2 kmh WSW 19.7 mph31.7 kmh 29.84 in1010.5 mb 0.00 in0.0 mm 0.00 in0.0 mm 0.00 in0.0 mm
07:40 AM 43.7°F6.5°C 39.7°F4.3°C 86% 7.6 mph SW12.2 kmh SW 15.9 mph25.6 kmh 29.85 in1010.8 mb 0.00 in0.0 mm 0.00 in0.0 mm 0.00 in0.0 mm
07:35 AM 43.9°F6.6°C 39.9°F4.4°C 86% 12.1 mph SW19.5 kmh SW 19.0 mph30.6 kmh 29.85 in1010.8 mb 0.00 in0.0 mm 0.00 in0.0 mm 0.00 in0.0 mm
07:30 AM 44.1°F6.7°C 40.1°F4.5°C 86% 9.8 mph S15.8 kmh S 20.6 mph33.2 kmh 29.85 in1010.8 mb 0.00 in0.0 mm 0.00 in0.0 mm 0.00 in0.0 mm
07:25 AM 44.1°F6.7°C 39.9°F4.4°C 85% 12.1 mph NW19.5 kmh NW 18.3 mph29.5 kmh 29.85 in1010.8 mb 0.00 in0.0 mm 0.00 in0.0 mm 0.00 in0.0 mm
07:20 AM 44.2°F6.8°C 40.1°F4.5°C 85% 9.8 mph WNW15.8 kmh WNW 18.3 mph29.5 kmh 29.85 in1010.8 mb 0.00 in0.0 mm 0.00 in0.0 mm 0.00 in0.0 mm
07:15 AM 44.1°F6.7°C 39.9°F4.4°C 85% 10.7 mph SSW17.2 kmh SSW 21.3 mph34.3 kmh 29.85 in1010.8 mb 0.00 in0.0 mm 0.00 in0.0 mm 0.00 in0.0 mm
07:09 AM 44.1°F6.7°C 39.9°F4.4°C 85% 12.1 mph 19.5 kmh 21.3 mph34.3 kmh 29.85 in1010.8 mb 0.00 in0.0 mm 0.00 in0.0 mm 0.00 in0.0 mm
07:04 AM 44.1°F6.7°C 39.9°F4.4°C 85% 11.4 mph SW18.3 kmh SW 19.7 mph31.7 kmh 29.84 in1010.5 mb 0.00 in0.0 mm 0.00 in0.0 mm 0.00 in0.0 mm
06:59 AM 44.2°F6.8°C 40.1°F4.5°C 85% 15.9 mph S25.6 kmh S 19.7 mph31.7 kmh 29.84 in1010.5 mb 0.00 in0.0 mm 0.00 in0.0 mm 0.00 in0.0 mm
06:54 AM 44.4°F6.9°C 40.3°F4.6°C 85% 10.7 mph SW17.2 kmh SW 22.8 mph36.7 kmh 29.84 in1010.5 mb 0.00 in0.0 mm 0.00 in0.0 mm 0.00 in0.0 mm
06:49 AM 44.6°F7.0°C 40.1°F4.5°C 84% 9.8 mph SW15.8 kmh SW 22.1 mph35.6 kmh 29.83 in1010.2 mb 0.00 in0.0 mm 0.00 in0.0 mm 0.00 in0.0 mm
06:43 AM 44.8°F7.1°C 40.3°F4.6°C 84% 9.8 mph WSW15.8 kmh WSW 23.5 mph37.8 kmh 29.83 in1010.2 mb 0.00 in0.0 mm 0.00 in0.0 mm 0.00 in0.0 mm
06:38 AM 44.8°F7.1°C 40.5°F4.7°C 85% 10.7 mph SW17.2 kmh SW 19.7 mph31.7 kmh 29.83 in1010.2 mb 0.00 in0.0 mm 0.00 in0.0 mm 0.00 in0.0 mm
06:33 AM 44.8°F7.1°C 40.5°F4.7°C 85% 9.2 mph W14.8 kmh W 15.2 mph24.5 kmh 29.84 in1010.5 mb 0.00 in0.0 mm 0.00 in0.0 mm 0.00 in0.0 mm
06:28 AM 44.8°F7.1°C 40.5°F4.7°C 85% 9.8 mph SW15.8 kmh SW 16.8 mph27.0 kmh 29.84 in1010.5 mb 0.00 in0.0 mm 0.00 in0.0 mm 0.00 in0.0 mm
06:23 AM 44.8°F7.1°C 40.5°F4.7°C 85% 6.9 mph S11.1 kmh S 21.3 mph34.3 kmh 29.85 in1010.8 mb 0.00 in0.0 mm 0.00 in0.0 mm 0.00 in0.0 mm
06:18 AM 44.8°F7.1°C 40.5°F4.7°C 85% 18.3 mph SW29.5 kmh SW 25.1 mph40.4 kmh 29.85 in1010.8 mb 0.00 in0.0 mm 0.00 in0.0 mm 0.00 in0.0 mm
06:12 AM 45.0°F7.2°C 40.6°F4.8°C 85% 9.2 mph SW14.8 kmh SW 17.4 mph28.0 kmh 29.85 in1010.8 mb 0.00 in0.0 mm 0.00 in0.0 mm 0.00 in0.0 mm
06:07 AM 44.8°F7.1°C 40.5°F4.7°C 85% 11.4 mph SW18.3 kmh SW 17.4 mph28.0 kmh 29.85 in1010.8 mb 0.00 in0.0 mm 0.00 in0.0 mm 0.00 in0.0 mm
06:02 AM 45.0°F7.2°C 40.6°F4.8°C 85% 6.9 mph SW11.1 kmh SW 16.8 mph27.0 kmh 29.85 in1010.8 mb 0.00 in0.0 mm 0.00 in0.0 mm 0.00 in0.0 mm
05:57 AM 45.1°F7.3°C 41.2°F5.1°C 86% 11.4 mph SSW18.3 kmh SSW 15.2 mph24.5 kmh 29.85 in1010.8 mb 0.00 in0.0 mm 0.00 in0.0 mm 0.00 in0.0 mm
05:52 AM 45.1°F7.3°C 41.2°F5.1°C 86% 7.6 mph SSW12.2 kmh SSW 13.6 mph21.9 kmh 29.85 in1010.8 mb 0.00 in0.0 mm 0.00 in0.0 mm 0.00 in0.0 mm
05:47 AM 45.3°F7.4°C 41.4°F5.2°C 86% 4.5 mph NW7.2 kmh NW 14.5 mph23.3 kmh 29.85 in1010.8 mb 0.00 in0.0 mm 0.00 in0.0 mm 0.00 in0.0 mm
05:41 AM 45.3°F7.4°C 41.4°F5.2°C 86% 9.2 mph SW14.8 kmh SW 19.7 mph31.7 kmh 29.85 in1010.8 mb 0.00 in0.0 mm 0.00 in0.0 mm 0.00 in0.0 mm
05:36 AM 45.3°F7.4°C 41.4°F5.2°C 86% 8.3 mph W13.4 kmh W 19.7 mph31.7 kmh 29.85 in1010.8 mb 0.00 in0.0 mm 0.00 in0.0 mm 0.00 in0.0 mm
05:31 AM 45.3°F7.4°C 41.4°F5.2°C 86% 8.3 mph NW13.4 kmh NW 19.7 mph31.7 kmh 29.83 in1010.2 mb 0.00 in0.0 mm 0.00 in0.0 mm 0.00 in0.0 mm
05:26 AM 45.3°F7.4°C 41.4°F5.2°C 86% 9.2 mph SW14.8 kmh SW 20.6 mph33.2 kmh 29.84 in1010.5 mb 0.00 in0.0 mm 0.00 in0.0 mm 0.00 in0.0 mm
05:21 AM 45.3°F7.4°C 41.4°F5.2°C 86% 7.6 mph NW12.2 kmh NW 17.4 mph28.0 kmh 29.84 in1010.5 mb 0.00 in0.0 mm 0.00 in0.0 mm 0.00 in0.0 mm
05:16 AM 45.3°F7.4°C 41.4°F5.2°C 86% 9.2 mph SW14.8 kmh SW 19.0 mph30.6 kmh 29.85 in1010.8 mb 0.00 in0.0 mm 0.00 in0.0 mm 0.00 in0.0 mm
05:10 AM 45.3°F7.4°C 41.4°F5.2°C 86% 9.8 mph NW15.8 kmh NW 17.4 mph28.0 kmh 29.84 in1010.5 mb 0.00 in0.0 mm 0.00 in0.0 mm 0.00 in0.0 mm
05:05 AM 45.3°F7.4°C 41.4°F5.2°C 86% 9.2 mph NW14.8 kmh NW 16.8 mph27.0 kmh 29.84 in1010.5 mb 0.00 in0.0 mm 0.00 in0.0 mm 0.00 in0.0 mm
05:00 AM 45.3°F7.4°C 41.4°F5.2°C 86% 10.7 mph SW17.2 kmh SW 17.4 mph28.0 kmh 29.84 in1010.5 mb 0.00 in0.0 mm 0.00 in0.0 mm 0.00 in0.0 mm
04:55 AM 45.5°F7.5°C 41.2°F5.1°C 85% 13.0 mph W20.9 kmh W 21.3 mph34.3 kmh 29.83 in1010.2 mb 0.00 in0.0 mm 0.00 in0.0 mm 0.00 in0.0 mm
04:50 AM 45.5°F7.5°C 41.2°F5.1°C 85% 17.4 mph SW28.0 kmh SW 20.6 mph33.2 kmh 29.83 in1010.2 mb 0.00 in0.0 mm 0.00 in0.0 mm 0.00 in0.0 mm
04:45 AM 45.3°F7.4°C 41.0°F5.0°C 85% 16.8 mph W27.0 kmh W 20.6 mph33.2 kmh 29.83 in1010.2 mb 0.00 in0.0 mm 0.00 in0.0 mm 0.00 in0.0 mm
04:39 AM 45.3°F7.4°C 41.0°F5.0°C 85% 13.0 mph SW20.9 kmh SW 25.9 mph41.7 kmh 29.83 in1010.2 mb 0.00 in0.0 mm 0.00 in0.0 mm 0.00 in0.0 mm
04:34 AM 45.3°F7.4°C 41.0°F5.0°C 85% 16.8 mph SSW27.0 kmh SSW 22.8 mph36.7 kmh 29.82 in1009.8 mb 0.00 in0.0 mm 0.00 in0.0 mm 0.00 in0.0 mm
04:29 AM 45.5°F7.5°C 41.2°F5.1°C 85% 15.2 mph SSW24.5 kmh SSW 26.6 mph42.8 kmh 29.82 in1009.8 mb 0.00 in0.0 mm 0.00 in0.0 mm 0.00 in0.0 mm
04:24 AM 45.5°F7.5°C 41.5°F5.3°C 86% 13.6 mph SW21.9 kmh SW 23.5 mph37.8 kmh 29.81 in1009.5 mb 0.00 in0.0 mm 0.00 in0.0 mm 0.00 in0.0 mm
04:19 AM 45.5°F7.5°C 41.5°F5.3°C 86% 16.8 mph SW27.0 kmh SW 24.4 mph39.3 kmh 29.80 in1009.1 mb 0.00 in0.0 mm 0.00 in0.0 mm 0.00 in0.0 mm
04:14 AM 45.5°F7.5°C 41.5°F5.3°C 86% 15.2 mph SW24.5 kmh SW 24.4 mph39.3 kmh 29.81 in1009.5 mb 0.00 in0.0 mm 0.00 in0.0 mm 0.00 in0.0 mm
04:08 AM 45.5°F7.5°C 41.5°F5.3°C 86% 10.7 mph SW17.2 kmh SW 22.1 mph35.6 kmh 29.81 in1009.5 mb 0.00 in0.0 mm 0.00 in0.0 mm 0.00 in0.0 mm
04:03 AM 45.9°F7.7°C 41.9°F5.5°C 86% 9.2 mph SW14.8 kmh SW 21.3 mph34.3 kmh 29.81 in1009.5 mb 0.00 in0.0 mm 0.00 in0.0 mm 0.00 in0.0 mm
03:58 AM 45.9°F7.7°C 41.9°F5.5°C 86% 13.0 mph NW20.9 kmh NW 21.3 mph34.3 kmh 29.81 in1009.5 mb 0.00 in0.0 mm 0.00 in0.0 mm 0.00 in0.0 mm
03:53 AM 45.9°F7.7°C 41.9°F5.5°C 86% 12.1 mph S19.5 kmh S 21.3 mph34.3 kmh 29.82 in1009.8 mb 0.00 in0.0 mm 0.00 in0.0 mm 0.00 in0.0 mm
03:48 AM 46.2°F7.9°C 42.3°F5.7°C 86% 6.9 mph SW11.1 kmh SW 17.4 mph28.0 kmh 29.82 in1009.8 mb 0.00 in0.0 mm 0.00 in0.0 mm 0.00 in0.0 mm
03:43 AM 46.4°F8.0°C 42.4°F5.8°C 86% 8.3 mph SW13.4 kmh SW 19.0 mph30.6 kmh 29.83 in1010.2 mb 0.00 in0.0 mm 0.00 in0.0 mm 0.00 in0.0 mm
03:37 AM 46.6°F8.1°C 42.3°F5.7°C 85% 7.6 mph SW12.2 kmh SW 22.1 mph35.6 kmh 29.83 in1010.2 mb 0.00 in0.0 mm 0.00 in0.0 mm 0.00 in0.0 mm
03:32 AM 46.6°F8.1°C 42.3°F5.7°C 85% 9.8 mph SW15.8 kmh SW 18.3 mph29.5 kmh 29.84 in1010.5 mb 0.00 in0.0 mm 0.00 in0.0 mm 0.00 in0.0 mm
03:27 AM 46.6°F8.1°C 42.3°F5.7°C 85% 13.0 mph SW20.9 kmh SW 26.6 mph42.8 kmh 29.83 in1010.2 mb 0.00 in0.0 mm 0.00 in0.0 mm 0.00 in0.0 mm
03:22 AM 46.6°F8.1°C 42.6°F5.9°C 86% 13.6 mph SW21.9 kmh SW 25.1 mph40.4 kmh 29.83 in1010.2 mb 0.00 in0.0 mm 0.00 in0.0 mm 0.00 in0.0 mm
03:17 AM 46.8°F8.2°C 42.8°F6.0°C 86% 14.5 mph WSW23.3 kmh WSW 25.1 mph40.4 kmh 29.84 in1010.5 mb 0.00 in0.0 mm 0.00 in0.0 mm 0.00 in0.0 mm
03:12 AM 46.8°F8.2°C 42.8°F6.0°C 86% 12.1 mph SW19.5 kmh SW 17.4 mph28.0 kmh 29.84 in1010.5 mb 0.00 in0.0 mm 0.00 in0.0 mm 0.00 in0.0 mm
03:06 AM 46.8°F8.2°C 42.4°F5.8°C 85% 9.2 mph NW14.8 kmh NW 21.3 mph34.3 kmh 29.84 in1010.5 mb 0.00 in0.0 mm 0.00 in0.0 mm 0.00 in0.0 mm
03:01 AM 46.9°F8.3°C 42.6°F5.9°C 85% 13.0 mph SSW20.9 kmh SSW 20.6 mph33.2 kmh 29.84 in1010.5 mb 0.00 in0.0 mm 0.00 in0.0 mm 0.00 in0.0 mm
02:56 AM 47.1°F8.4°C 42.8°F6.0°C 85% 10.7 mph SW17.2 kmh SW 17.4 mph28.0 kmh 29.84 in1010.5 mb 0.00 in0.0 mm 0.00 in0.0 mm 0.00 in0.0 mm
02:51 AM 48.0°F8.9°C 43.7°F6.5°C 85% 11.4 mph W18.3 kmh W 19.0 mph30.6 kmh 29.84 in1010.5 mb 0.00 in0.0 mm 0.00 in0.0 mm 0.00 in0.0 mm
02:46 AM 47.5°F8.6°C 43.2°F6.2°C 85% 14.5 mph NW23.3 kmh NW 19.0 mph30.6 kmh 29.86 in1011.2 mb 0.00 in0.0 mm 0.00 in0.0 mm 0.00 in0.0 mm
02:41 AM 48.0°F8.9°C 43.7°F6.5°C 85% 13.6 mph SW21.9 kmh SW 24.4 mph39.3 kmh 29.85 in1010.8 mb 0.00 in0.0 mm 0.00 in0.0 mm 0.00 in0.0 mm
02:35 AM 48.0°F8.9°C 43.7°F6.5°C 85% 12.1 mph WNW19.5 kmh WNW 19.7 mph31.7 kmh 29.85 in1010.8 mb 0.00 in0.0 mm 0.00 in0.0 mm 0.00 in0.0 mm
02:30 AM 48.2°F9.0°C 43.5°F6.4°C 84% 5.4 mph W8.7 kmh W 19.0 mph30.6 kmh 29.85 in1010.8 mb 0.00 in0.0 mm 0.00 in0.0 mm 0.00 in0.0 mm
02:25 AM 48.2°F9.0°C 43.5°F6.4°C 84% 10.7 mph SW17.2 kmh SW 17.4 mph28.0 kmh 29.85 in1010.8 mb 0.00 in0.0 mm 0.00 in0.0 mm 0.00 in0.0 mm
02:20 AM 48.2°F9.0°C 43.5°F6.4°C 84% 9.2 mph SW14.8 kmh SW 19.7 mph31.7 kmh 29.85 in1010.8 mb 0.00 in0.0 mm 0.00 in0.0 mm 0.00 in0.0 mm
02:15 AM 48.4°F9.1°C 43.7°F6.5°C 84% 9.2 mph W14.8 kmh W 17.4 mph28.0 kmh 29.85 in1010.8 mb 0.00 in0.0 mm 0.00 in0.0 mm 0.00 in0.0 mm
02:10 AM 48.6°F9.2°C 43.9°F6.6°C 84% 11.4 mph SW18.3 kmh SW 17.4 mph28.0 kmh 29.85 in1010.8 mb 0.00 in0.0 mm 0.00 in0.0 mm 0.00 in0.0 mm
02:04 AM 48.7°F9.3°C 44.1°F6.7°C 84% 11.4 mph S18.3 kmh S -- 29.86 in1011.2 mb 0.00 in0.0 mm 0.00 in0.0 mm 0.00 in0.0 mm
02:02 AM 48.7°F9.3°C 44.1°F6.7°C 84% 11.4 mph S18.3 kmh S -- 29.86 in1011.2 mb 0.00 in0.0 mm 0.00 in0.0 mm 0.00 in0.0 mm
01:56 AM 49.1°F9.5°C 44.4°F6.9°C 84% 9.2 mph SW14.8 kmh SW 18.3 mph29.5 kmh 29.86 in1011.2 mb 0.00 in0.0 mm 0.00 in0.0 mm 0.00 in0.0 mm
01:51 AM 49.3°F9.6°C 44.4°F6.9°C 83% 9.8 mph WSW15.8 kmh WSW 21.3 mph34.3 kmh 29.87 in1011.5 mb 0.00 in0.0 mm 0.00 in0.0 mm 0.00 in0.0 mm
01:46 AM 49.6°F9.8°C 44.8°F7.1°C 83% 10.7 mph W17.2 kmh W 20.6 mph33.2 kmh 29.88 in1011.9 mb 0.00 in0.0 mm 0.00 in0.0 mm 0.00 in0.0 mm
01:41 AM 50.2°F10.1°C 45.0°F7.2°C 82% 9.8 mph SW15.8 kmh SW 15.2 mph24.5 kmh 29.89 in1012.2 mb 0.00 in0.0 mm 0.00 in0.0 mm 0.00 in0.0 mm
01:36 AM 50.4°F10.2°C 45.1°F7.3°C 82% 9.8 mph SW15.8 kmh SW 17.4 mph28.0 kmh 29.88 in1011.9 mb 0.00 in0.0 mm 0.00 in0.0 mm 0.00 in0.0 mm
01:30 AM 50.4°F10.2°C 45.1°F7.3°C 82% 9.8 mph W15.8 kmh W 14.5 mph23.3 kmh 29.89 in1012.2 mb 0.00 in0.0 mm 0.00 in0.0 mm 0.00 in0.0 mm
01:25 AM 50.5°F10.3°C 45.3°F7.4°C 82% 9.8 mph W15.8 kmh W 15.2 mph24.5 kmh 29.88 in1011.9 mb 0.00 in0.0 mm 0.00 in0.0 mm 0.00 in0.0 mm
01:20 AM 50.7°F10.4°C 45.5°F7.5°C 82% 8.3 mph W13.4 kmh W 17.4 mph28.0 kmh 29.88 in1011.9 mb 0.00 in0.0 mm 0.00 in0.0 mm 0.00 in0.0 mm
01:15 AM 50.7°F10.4°C 45.5°F7.5°C 82% 10.7 mph SW17.2 kmh SW 19.7 mph31.7 kmh 29.88 in1011.9 mb 0.00 in0.0 mm 0.00 in0.0 mm 0.00 in0.0 mm
01:10 AM 50.7°F10.4°C 45.7°F7.6°C 83% 11.4 mph W18.3 kmh W 16.8 mph27.0 kmh 29.88 in1011.9 mb 0.00 in0.0 mm 0.00 in0.0 mm 0.00 in0.0 mm
01:05 AM 50.7°F10.4°C 45.7°F7.6°C 83% 8.3 mph W13.4 kmh W 13.6 mph21.9 kmh 29.87 in1011.5 mb 0.00 in0.0 mm 0.00 in0.0 mm 0.00 in0.0 mm
12:59 AM 50.7°F10.4°C 45.7°F7.6°C 83% 11.4 mph SSW18.3 kmh SSW 15.9 mph25.6 kmh 29.87 in1011.5 mb 0.00 in0.0 mm 0.00 in0.0 mm 0.00 in0.0 mm
12:54 AM 51.1°F10.6°C 46.0°F7.8°C 83% 7.6 mph 12.2 kmh 13.6 mph21.9 kmh 29.87 in1011.5 mb 0.00 in0.0 mm 0.00 in0.0 mm 0.00 in0.0 mm
12:49 AM 51.1°F10.6°C 46.0°F7.8°C 83% 7.6 mph NW12.2 kmh NW 15.9 mph25.6 kmh 29.86 in1011.2 mb 0.00 in0.0 mm 0.00 in0.0 mm 0.00 in0.0 mm
12:44 AM 51.1°F10.6°C 46.0°F7.8°C 83% 8.3 mph SW13.4 kmh SW 14.5 mph23.3 kmh 29.87 in1011.5 mb 0.00 in0.0 mm 0.00 in0.0 mm 0.00 in0.0 mm
12:39 AM 51.1°F10.6°C 46.0°F7.8°C 83% 9.2 mph WSW14.8 kmh WSW 13.6 mph21.9 kmh 29.87 in1011.5 mb 0.00 in0.0 mm 0.00 in0.0 mm 0.00 in0.0 mm
12:34 AM 51.1°F10.6°C 46.0°F7.8°C 83% 7.6 mph W12.2 kmh W 11.4 mph18.3 kmh 29.87 in1011.5 mb 0.00 in0.0 mm 0.00 in0.0 mm 0.00 in0.0 mm
12:28 AM 51.4°F10.8°C 46.4°F8.0°C 83% 4.5 mph SW7.2 kmh SW 12.1 mph19.5 kmh 29.87 in1011.5 mb 0.00 in0.0 mm 0.00 in0.0 mm 0.00 in0.0 mm
12:23 AM 51.6°F10.9°C 46.6°F8.1°C 83% 6.0 mph SW9.7 kmh SW 9.2 mph14.8 kmh 29.86 in1011.2 mb 0.00 in0.0 mm 0.00 in0.0 mm 0.00 in0.0 mm
12:18 AM 51.6°F10.9°C 46.6°F8.1°C 83% 3.8 mph SW6.1 kmh SW 9.2 mph14.8 kmh 29.88 in1011.9 mb 0.00 in0.0 mm 0.00 in0.0 mm 0.00 in0.0 mm
12:13 AM 51.6°F10.9°C 46.6°F8.1°C 83% 5.4 mph W8.7 kmh W 12.1 mph19.5 kmh 29.88 in1011.9 mb 0.00 in0.0 mm 0.00 in0.0 mm 0.00 in0.0 mm
12:08 AM 51.8°F11.0°C 46.4°F8.0°C 82% 8.3 mph W13.4 kmh W 12.1 mph19.5 kmh 29.88 in1011.9 mb 0.00 in0.0 mm 0.00 in0.0 mm 0.00 in0.0 mm
12:03 AM 51.8°F11.0°C 46.4°F8.0°C 82% 4.5 mph SW7.2 kmh SW 10.7 mph17.2 kmh 29.88 in1011.9 mb 0.00 in0.0 mm 0.00 in0.0 mm 0.00 in0.0 mm